Hlavní strana
METAR-TAF:

METAR-TAF

Letiště :

Damašek, Sýrie

zeměpisná šířka: 33-25N, zeměpisná délka: 036-31E, výška: 608 m

Aktuální stav počasí

Zpráva byla vytvořena před 12 minutami, v 06:00 UTC
Bezvětří
Teplota 20°C
Vlhkost vzduchu 64%
Tlak 1018 hPa
Viditelnost 10 km a více
Žádná oblačnost pod 1500 m, nevyskytují se cumulonimby.

METAR: OSDI 240600Z 00000KT CAVOK 20/13 Q1018

Čas: 09:12 (06:12 UTC)

Předpověď počasí

Zpráva byla vytvořena před 1 hodinou a 12 minutami, v 05:00 UTC
Předpověď platná od 24 v 06 UTC do 25 v 12 UTC
Jihozápadní vítr 10 kt
Viditelnost 10 km a více
Žádná oblačnost pod 1500 m, nevyskytují se cumulonimby.
Dočasný
od 24 v 12 UTC do 24 v 18 UTC
Západojihozápadní vítr 15 kt
Viditelnost: 8000 m
Skoro jasno ve výšce 3000 ft

TAF: OSDI 240500Z 2406/2512 22010KT CAVOK TEMPO 2412/2418 25015KT 8000 FEW030

Stav a předpovědi počasí z více než 4 000 letišť (zprávy METAR a TAF).

Červené a žluté tečky na mapě představují dostupné meteorologické stanice.

Když kurzor umístíte na tečku, zobrazí se název stanice.

Pak kliknutím zobrazíte stav a předpověď počasí.

Chcete-li změnit mapu, kliknutím na zelené tlačítko se znaménkem +mapu přiblížíte, kliknutím na zelené tlačítko se znaménkem – mapu oddálíte a kliknutím na zelené šipky přejdete na sousední mapy.


METAR-TAF: